sensor_id;sensor_type;location;lat;lon;timestamp;pressure;altitude;pressure_sealevel;temperature;humidity
52949;BME280;38812;50.942;3.644;2022-11-15T04:30:55;100401.66;;;8.65;100.00
52949;BME280;38812;50.942;3.644;2022-11-15T04:33:26;100401.75;;;8.61;100.00
52949;BME280;38812;50.942;3.644;2022-11-15T04:35:53;100360.25;;;8.41;100.00
52949;BME280;38812;50.942;3.644;2022-11-15T04:38:37;100373.34;;;8.41;100.00
52949;BME280;38812;50.942;3.644;2022-11-15T04:41:03;100393.22;;;8.49;100.00
52949;BME280;38812;50.942;3.644;2022-11-15T04:43:28;100390.56;;;8.51;100.00
52949;BME280;38812;50.942;3.644;2022-11-15T04:45:54;100400.34;;;8.44;100.00
52949;BME280;38812;50.942;3.644;2022-11-15T04:48:19;100392.56;;;8.40;100.00
52949;BME280;38812;50.942;3.644;2022-11-15T04:50:48;100398.84;;;8.28;100.00
52949;BME280;38812;50.942;3.644;2022-11-15T04:53:13;100374.75;;;8.11;100.00
52949;BME280;38812;50.942;3.644;2022-11-15T04:55:38;100388.50;;;8.22;100.00
52949;BME280;38812;50.942;3.644;2022-11-15T04:58:04;100386.66;;;8.27;100.00
52949;BME280;38812;50.942;3.644;2022-11-15T05:00:29;100364.44;;;8.02;100.00
52949;BME280;38812;50.942;3.644;2022-11-15T05:02:55;100372.13;;;8.11;100.00
52949;BME280;38812;50.942;3.644;2022-11-15T05:05:39;100392.09;;;8.16;100.00
52949;BME280;38812;50.942;3.644;2022-11-15T05:08:05;100386.94;;;8.12;100.00
52949;BME280;38812;50.942;3.644;2022-11-15T05:10:30;100350.63;;;7.95;100.00
52949;BME280;38812;50.942;3.644;2022-11-15T05:12:56;100361.75;;;8.06;100.00
52949;BME280;38812;50.942;3.644;2022-11-15T05:15:21;100370.38;;;8.11;100.00
52949;BME280;38812;50.942;3.644;2022-11-15T05:17:47;100362.75;;;8.01;100.00
52949;BME280;38812;50.942;3.644;2022-11-15T05:20:12;100365.41;;;7.98;100.00
52949;BME280;38812;50.942;3.644;2022-11-15T05:22:38;100349.06;;;7.85;100.00
52949;BME280;38812;50.942;3.644;2022-11-15T05:25:03;100373.25;;;7.98;100.00
52949;BME280;38812;50.942;3.644;2022-11-15T05:27:29;100353.28;;;7.94;100.00
52949;BME280;38812;50.942;3.644;2022-11-15T05:29:54;100350.66;;;7.94;100.00
52949;BME280;38812;50.942;3.644;2022-11-15T05:32:20;100341.09;;;7.91;100.00
52949;BME280;38812;50.942;3.644;2022-11-15T05:34:46;100335.81;;;7.94;100.00
52949;BME280;38812;50.942;3.644;2022-11-15T05:37:12;100348.69;;;8.05;100.00
52949;BME280;38812;50.942;3.644;2022-11-15T05:39:37;100322.94;;;7.83;100.00
52949;BME280;38812;50.942;3.644;2022-11-15T05:44:36;100342.03;;;7.88;100.00
52949;BME280;38812;50.942;3.644;2022-11-15T05:47:04;100336.88;;;7.84;100.00
52949;BME280;38812;50.942;3.644;2022-11-15T05:49:34;100317.69;;;7.83;100.00
52949;BME280;38812;50.942;3.644;2022-11-15T05:52:03;100324.50;;;7.94;100.00
52949;BME280;38812;50.942;3.644;2022-11-15T05:54:31;100323.66;;;7.91;100.00
52949;BME280;38812;50.942;3.644;2022-11-15T05:56:57;100332.50;;;7.84;100.00
52949;BME280;38812;50.942;3.644;2022-11-15T05:59:22;100329.84;;;7.86;100.00
52949;BME280;38812;50.942;3.644;2022-11-15T06:01:48;100346.38;;;7.88;100.00
52949;BME280;38812;50.942;3.644;2022-11-15T06:04:14;100348.09;;;7.90;100.00
52949;BME280;38812;50.942;3.644;2022-11-15T06:06:39;100324.81;;;7.77;100.00
52949;BME280;38812;50.942;3.644;2022-11-15T06:09:04;100345.63;;;7.81;100.00
52949;BME280;38812;50.942;3.644;2022-11-15T06:11:30;100323.34;;;7.59;100.00
52949;BME280;38812;50.942;3.644;2022-11-15T06:13:56;100344.19;;;7.65;100.00
52949;BME280;38812;50.942;3.644;2022-11-15T06:16:21;100348.50;;;7.68;100.00
52949;BME280;38812;50.942;3.644;2022-11-15T06:18:46;100333.06;;;7.54;100.00
52949;BME280;38812;50.942;3.644;2022-11-15T06:21:12;100344.13;;;7.68;100.00
52949;BME280;38812;50.942;3.644;2022-11-15T06:23:37;100344.25;;;7.61;100.00
52949;BME280;38812;50.942;3.644;2022-11-15T06:26:03;100345.13;;;7.60;100.00
52949;BME280;38812;50.942;3.644;2022-11-15T06:28:32;100331.44;;;7.45;100.00
52949;BME280;38812;50.942;3.644;2022-11-15T06:31:09;100322.84;;;7.39;100.00
52949;BME280;38812;50.942;3.644;2022-11-15T06:33:36;100361.09;;;7.43;100.00
52949;BME280;38812;50.942;3.644;2022-11-15T06:36:07;100344.56;;;7.42;100.00
52949;BME280;38812;50.942;3.644;2022-11-15T06:38:33;100335.13;;;7.35;100.00
52949;BME280;38812;50.942;3.644;2022-11-15T06:41:03;100324.84;;;7.21;100.00
52949;BME280;38812;50.942;3.644;2022-11-15T06:43:28;100336.69;;;7.44;100.00
52949;BME280;38812;50.942;3.644;2022-11-15T06:45:54;100314.13;;;7.38;100.00
52949;BME280;38812;50.942;3.644;2022-11-15T06:48:19;100299.41;;;7.36;100.00
52949;BME280;38812;50.942;3.644;2022-11-15T06:50:51;100333.00;;;7.57;100.00
52949;BME280;38812;50.942;3.644;2022-11-15T06:53:17;100336.66;;;7.45;100.00
52949;BME280;38812;50.942;3.644;2022-11-15T06:55:42;100334.88;;;7.49;100.00
52949;BME280;38812;50.942;3.644;2022-11-15T06:58:07;100320.91;;;7.50;100.00
52949;BME280;38812;50.942;3.644;2022-11-15T07:00:33;100330.50;;;7.51;100.00
52949;BME280;38812;50.942;3.644;2022-11-15T07:03:01;100323.50;;;7.53;100.00
52949;BME280;38812;50.942;3.644;2022-11-15T07:05:27;100326.72;;;7.67;100.00
52949;BME280;38812;50.942;3.644;2022-11-15T07:07:54;100329.47;;;7.58;100.00
52949;BME280;38812;50.942;3.644;2022-11-15T07:10:21;100337.13;;;7.70;100.00
52949;BME280;38812;50.942;3.644;2022-11-15T07:12:48;100316.31;;;7.64;100.00
52949;BME280;38812;50.942;3.644;2022-11-15T07:15:14;100335.34;;;7.72;100.00
52949;BME280;38812;50.942;3.644;2022-11-15T07:17:40;100343.91;;;7.80;100.00
52949;BME280;38812;50.942;3.644;2022-11-15T07:20:06;100322.34;;;7.68;100.00
52949;BME280;38812;50.942;3.644;2022-11-15T07:22:31;100337.59;;;7.92;100.00
52949;BME280;38812;50.942;3.644;2022-11-15T07:24:57;100319.56;;;7.78;100.00
52949;BME280;38812;50.942;3.644;2022-11-15T07:27:22;100342.78;;;7.95;100.00
52949;BME280;38812;50.942;3.644;2022-11-15T07:29:47;100330.41;;;8.03;100.00
52949;BME280;38812;50.942;3.644;2022-11-15T07:32:13;100318.81;;;8.18;100.00
52949;BME280;38812;50.942;3.644;2022-11-15T07:34:38;100323.91;;;8.24;100.00
52949;BME280;38812;50.942;3.644;2022-11-15T07:37:03;100370.38;;;8.57;100.00
52949;BME280;38812;50.942;3.644;2022-11-15T07:39:29;100378.75;;;8.75;100.00
52949;BME280;38812;50.942;3.644;2022-11-15T07:41:54;100394.41;;;8.78;100.00
52949;BME280;38812;50.942;3.644;2022-11-15T07:44:39;100390.41;;;8.60;100.00
52949;BME280;38812;50.942;3.644;2022-11-15T07:47:05;100397.44;;;8.58;100.00
52949;BME280;38812;50.942;3.644;2022-11-15T07:49:30;100400.81;;;8.63;100.00
52949;BME280;38812;50.942;3.644;2022-11-15T07:51:55;100401.31;;;8.82;100.00
52949;BME280;38812;50.942;3.644;2022-11-15T07:54:21;100419.00;;;9.11;100.00
52949;BME280;38812;50.942;3.644;2022-11-15T07:56:46;100407.47;;;9.19;100.00
52949;BME280;38812;50.942;3.644;2022-11-15T07:59:11;100443.13;;;9.65;100.00
52949;BME280;38812;50.942;3.644;2022-11-15T08:01:37;100444.59;;;9.75;100.00
52949;BME280;38812;50.942;3.644;2022-11-15T08:04:02;100456.41;;;9.94;100.00
52949;BME280;38812;50.942;3.644;2022-11-15T08:06:28;100471.13;;;10.00;100.00
52949;BME280;38812;50.942;3.644;2022-11-15T08:08:53;100488.13;;;10.21;100.00
52949;BME280;38812;50.942;3.644;2022-11-15T08:11:18;100475.19;;;10.13;100.00
52949;BME280;38812;50.942;3.644;2022-11-15T08:13:44;100492.91;;;10.04;100.00
52949;BME280;38812;50.942;3.644;2022-11-15T08:16:09;100472.44;;;9.82;100.00
52949;BME280;38812;50.942;3.644;2022-11-15T08:18:37;100478.56;;;9.81;100.00
52949;BME280;38812;50.942;3.644;2022-11-15T08:21:03;100486.06;;;9.96;100.00
52949;BME280;38812;50.942;3.644;2022-11-15T08:23:29;100484.13;;;10.05;100.00
52949;BME280;38812;50.942;3.644;2022-11-15T08:26:02;100485.31;;;9.93;100.00
52949;BME280;38812;50.942;3.644;2022-11-15T08:28:29;100477.91;;;9.73;100.00
52949;BME280;38812;50.942;3.644;2022-11-15T08:30:55;100479.38;;;9.85;100.00
52949;BME280;38812;50.942;3.644;2022-11-15T08:33:20;100484.06;;;9.72;100.00
52949;BME280;38812;50.942;3.644;2022-11-15T08:35:45;100480.69;;;9.66;100.00
52949;BME280;38812;50.942;3.644;2022-11-15T08:38:11;100473.19;;;9.87;100.00
52949;BME280;38812;50.942;3.644;2022-11-15T08:40:37;100449.41;;;10.61;100.00
52949;BME280;38812;50.942;3.644;2022-11-15T08:43:03;100477.13;;;11.04;100.00
52949;BME280;38812;50.942;3.644;2022-11-15T08:45:29;100492.72;;;11.69;100.00
52949;BME280;38812;50.942;3.644;2022-11-15T08:47:55;100489.72;;;11.81;100.00
52949;BME280;38812;50.942;3.644;2022-11-15T08:50:20;100472.84;;;11.59;100.00
52949;BME280;38812;50.942;3.644;2022-11-15T08:52:46;100474.63;;;11.58;100.00
52949;BME280;38812;50.942;3.644;2022-11-15T08:55:13;100467.13;;;11.73;100.00
52949;BME280;38812;50.942;3.644;2022-11-15T08:57:39;100459.16;;;11.76;100.00
52949;BME280;38812;50.942;3.644;2022-11-15T09:00:04;100464.16;;;11.85;100.00
52949;BME280;38812;50.942;3.644;2022-11-15T09:02:30;100449.03;;;11.63;100.00
52949;BME280;38812;50.942;3.644;2022-11-15T09:05:14;100482.09;;;11.71;100.00
52949;BME280;38812;50.942;3.644;2022-11-15T09:07:58;100471.59;;;11.71;100.00
52949;BME280;38812;50.942;3.644;2022-11-15T09:10:23;100466.97;;;11.21;100.00
52949;BME280;38812;50.942;3.644;2022-11-15T09:12:49;100460.66;;;10.97;100.00
52949;BME280;38812;50.942;3.644;2022-11-15T09:15:16;100433.66;;;10.61;100.00
52949;BME280;38812;50.942;3.644;2022-11-15T09:17:41;100437.53;;;10.48;100.00
52949;BME280;38812;50.942;3.644;2022-11-15T09:20:08;100437.69;;;10.42;100.00
52949;BME280;38812;50.942;3.644;2022-11-15T09:22:33;100448.84;;;10.50;100.00
52949;BME280;38812;50.942;3.644;2022-11-15T09:24:59;100421.06;;;10.42;100.00
52949;BME280;38812;50.942;3.644;2022-11-15T09:27:31;100425.38;;;10.44;100.00
52949;BME280;38812;50.942;3.644;2022-11-15T09:29:56;100432.84;;;10.59;100.00
52949;BME280;38812;50.942;3.644;2022-11-15T09:32:22;100421.69;;;10.51;100.00
52949;BME280;38812;50.942;3.644;2022-11-15T09:34:50;100412.00;;;10.53;100.00
52949;BME280;38812;50.942;3.644;2022-11-15T09:37:15;100388.81;;;10.38;100.00
52949;BME280;38812;50.942;3.644;2022-11-15T09:39:41;100396.53;;;10.43;100.00
52949;BME280;38812;50.942;3.644;2022-11-15T09:47:58;100411.84;;;10.89;100.00
52949;BME280;38812;50.942;3.644;2022-11-15T09:53:01;100392.50;;;10.91;100.00
52949;BME280;38812;50.942;3.644;2022-11-15T09:55:57;100398.19;;;11.06;100.00
52949;BME280;38812;50.942;3.644;2022-11-15T10:00:53;100388.56;;;11.06;100.00
52949;BME280;38812;50.942;3.644;2022-11-15T10:03:40;100399.06;;;11.06;100.00
52949;BME280;38812;50.942;3.644;2022-11-15T10:06:22;100396.47;;;11.05;100.00
52949;BME280;38812;50.942;3.644;2022-11-15T10:09:01;100389.09;;;11.17;100.00
52949;BME280;38812;50.942;3.644;2022-11-15T10:11:29;100341.72;;;10.91;100.00
52949;BME280;38812;50.942;3.644;2022-11-15T10:13:59;100375.78;;;11.23;100.00
52949;BME280;38812;50.942;3.644;2022-11-15T10:24:40;100360.09;;;11.73;100.00
52949;BME280;38812;50.942;3.644;2022-11-15T10:27:11;100377.56;;;11.77;100.00
52949;BME280;38812;50.942;3.644;2022-11-15T10:29:43;100353.53;;;11.88;100.00
52949;BME280;38812;50.942;3.644;2022-11-15T10:32:11;100357.69;;;11.93;100.00
52949;BME280;38812;50.942;3.644;2022-11-15T10:34:36;100346.31;;;12.18;100.00
52949;BME280;38812;50.942;3.644;2022-11-15T10:37:02;100344.28;;;12.26;100.00
52949;BME280;38812;50.942;3.644;2022-11-15T10:39:28;100330.44;;;11.94;100.00
52949;BME280;38812;50.942;3.644;2022-11-15T10:41:54;100329.53;;;11.95;100.00
52949;BME280;38812;50.942;3.644;2022-11-15T10:44:28;100326.72;;;12.01;100.00
52949;BME280;38812;50.942;3.644;2022-11-15T10:49:26;100329.94;;;12.80;100.00
52949;BME280;38812;50.942;3.644;2022-11-15T10:52:12;100312.56;;;12.76;100.00
52949;BME280;38812;50.942;3.644;2022-11-15T10:54:42;100312.25;;;12.60;100.00
52949;BME280;38812;50.942;3.644;2022-11-15T10:57:13;100305.22;;;12.60;100.00
52949;BME280;38812;50.942;3.644;2022-11-15T10:59:47;100296.97;;;12.46;100.00
52949;BME280;38812;50.942;3.644;2022-11-15T11:04:54;100287.09;;;12.29;100.00
52949;BME280;38812;50.942;3.644;2022-11-15T11:07:22;100285.88;;;12.38;100.00
52949;BME280;38812;50.942;3.644;2022-11-15T11:09:57;100252.09;;;12.26;100.00
52949;BME280;38812;50.942;3.644;2022-11-15T11:12:34;100281.72;;;12.32;100.00
52949;BME280;38812;50.942;3.644;2022-11-15T11:15:02;100281.00;;;12.27;100.00
52949;BME280;38812;50.942;3.644;2022-11-15T11:20:33;100251.28;;;12.24;100.00
52949;BME280;38812;50.942;3.644;2022-11-15T11:29:14;100254.66;;;12.51;100.00
52949;BME280;38812;50.942;3.644;2022-11-15T11:31:59;100246.44;;;12.58;100.00
52949;BME280;38812;50.942;3.644;2022-11-15T11:42:24;100210.16;;;12.43;100.00
52949;BME280;38812;50.942;3.644;2022-11-15T11:45:03;100208.56;;;12.39;100.00
52949;BME280;38812;50.942;3.644;2022-11-15T11:51:08;100185.63;;;12.19;100.00
52949;BME280;38812;50.942;3.644;2022-11-15T11:53:46;100188.81;;;12.27;100.00
52949;BME280;38812;50.942;3.644;2022-11-15T11:56:26;100176.63;;;12.25;100.00
52949;BME280;38812;50.942;3.644;2022-11-15T11:58:55;100171.38;;;12.25;100.00
52949;BME280;38812;50.942;3.644;2022-11-15T12:01:42;100172.16;;;12.27;100.00
52949;BME280;38812;50.942;3.644;2022-11-15T12:04:14;100175.34;;;12.35;100.00
52949;BME280;38812;50.942;3.644;2022-11-15T12:09:38;100172.16;;;12.27;100.00
52949;BME280;38812;50.942;3.644;2022-11-15T12:12:06;100162.72;;;12.21;100.00
52949;BME280;38812;50.942;3.644;2022-11-15T12:14:46;100135.91;;;12.12;100.00
52949;BME280;38812;50.942;3.644;2022-11-15T12:17:16;100128.59;;;12.18;100.00
52949;BME280;38812;50.942;3.644;2022-11-15T12:19:43;100119.84;;;12.18;100.00
52949;BME280;38812;50.942;3.644;2022-11-15T12:22:24;100136.78;;;12.34;100.00
52949;BME280;38812;50.942;3.644;2022-11-15T12:25:02;100128.09;;;12.32;100.00
52949;BME280;38812;50.942;3.644;2022-11-15T12:27:38;100136.91;;;12.31;100.00
52949;BME280;38812;50.942;3.644;2022-11-15T12:30:25;100106.50;;;12.22;100.00
52949;BME280;38812;50.942;3.644;2022-11-15T12:32:56;100103.63;;;12.28;100.00
52949;BME280;38812;50.942;3.644;2022-11-15T12:35:31;100090.41;;;12.30;100.00
52949;BME280;38812;50.942;3.644;2022-11-15T12:37:58;100099.22;;;12.29;100.00
52949;BME280;38812;50.942;3.644;2022-11-15T12:40:34;100089.72;;;12.25;100.00
52949;BME280;38812;50.942;3.644;2022-11-15T12:43:02;100087.94;;;12.25;100.00
52949;BME280;38812;50.942;3.644;2022-11-15T12:50:55;100053.78;;;12.24;100.00
52949;BME280;38812;50.942;3.644;2022-11-15T12:58:38;100030.94;;;12.24;100.00
52949;BME280;38812;50.942;3.644;2022-11-15T13:01:09;100021.84;;;12.11;100.00
52949;BME280;38812;50.942;3.644;2022-11-15T13:03:35;100017.34;;;12.13;100.00
52949;BME280;38812;50.942;3.644;2022-11-15T13:06:04;100054.47;;;12.29;100.00
52949;BME280;38812;50.942;3.644;2022-11-15T13:08:38;100031.28;;;12.37;100.00
52949;BME280;38812;50.942;3.644;2022-11-15T13:14:45;100036.53;;;12.37;100.00
52949;BME280;38812;50.942;3.644;2022-11-15T13:17:34;100019.75;;;12.40;100.00
52949;BME280;38812;50.942;3.644;2022-11-15T13:20:02;100028.84;;;12.32;100.00
52949;BME280;38812;50.942;3.644;2022-11-15T13:23:07;100022.56;;;12.35;100.00
52949;BME280;38812;50.942;3.644;2022-11-15T13:28:23;100006.94;;;12.32;100.00
52949;BME280;38812;50.942;3.644;2022-11-15T13:33:36;100003.38;;;12.33;100.00
52949;BME280;38812;50.942;3.644;2022-11-15T13:36:23;99992.84;;;12.33;100.00
52949;BME280;38812;50.942;3.644;2022-11-15T13:38:58;99991.06;;;12.33;100.00
52949;BME280;38812;50.942;3.644;2022-11-15T13:41:27;99993.09;;;12.27;100.00
52949;BME280;38812;50.942;3.644;2022-11-15T13:43:54;99962.25;;;12.09;100.00
52949;BME280;38812;50.942;3.644;2022-11-15T13:46:33;99969.28;;;12.08;100.00
52949;BME280;38812;50.942;3.644;2022-11-15T13:49:04;99965.06;;;12.04;100.00
52949;BME280;38812;50.942;3.644;2022-11-15T13:56:41;99935.88;;;11.66;100.00
52949;BME280;38812;50.942;3.644;2022-11-15T13:59:18;99937.66;;;11.66;100.00
52949;BME280;38812;50.942;3.644;2022-11-15T14:01:47;99932.72;;;11.57;100.00
52949;BME280;38812;50.942;3.644;2022-11-15T14:04:18;99941.91;;;11.47;100.00
52949;BME280;38812;50.942;3.644;2022-11-15T14:06:48;99909.22;;;11.30;100.00
52949;BME280;38812;50.942;3.644;2022-11-15T14:09:32;99934.16;;;11.44;100.00
52949;BME280;38812;50.942;3.644;2022-11-15T14:11:59;99923.75;;;11.41;100.00
52949;BME280;38812;50.942;3.644;2022-11-15T14:14:27;99925.00;;;11.30;100.00
52949;BME280;38812;50.942;3.644;2022-11-15T14:16:55;99914.75;;;11.24;100.00
52949;BME280;38812;50.942;3.644;2022-11-15T14:22:12;99905.38;;;11.17;100.00
52949;BME280;38812;50.942;3.644;2022-11-15T14:24:38;99905.66;;;11.10;100.00
52949;BME280;38812;50.942;3.644;2022-11-15T14:27:24;99897.22;;;11.02;100.00
52949;BME280;38812;50.942;3.644;2022-11-15T14:29:50;99881.63;;;10.97;100.00
52949;BME280;38812;50.942;3.644;2022-11-15T14:32:25;99887.78;;;10.96;100.00
52949;BME280;38812;50.942;3.644;2022-11-15T14:35:13;99877.50;;;10.90;100.00
52949;BME280;38812;50.942;3.644;2022-11-15T14:37:39;99874.06;;;10.88;100.00
52949;BME280;38812;50.942;3.644;2022-11-15T14:40:05;99867.09;;;10.87;100.00
52949;BME280;38812;50.942;3.644;2022-11-15T14:42:31;99845.59;;;10.77;100.00
52949;BME280;38812;50.942;3.644;2022-11-15T14:44:57;99829.88;;;10.76;100.00
52949;BME280;38812;50.942;3.644;2022-11-15T14:47:23;99843.00;;;10.76;100.00
52949;BME280;38812;50.942;3.644;2022-11-15T14:49:48;99828.06;;;10.78;100.00
52949;BME280;38812;50.942;3.644;2022-11-15T14:52:31;99815.03;;;10.75;100.00
52949;BME280;38812;50.942;3.644;2022-11-15T14:55:02;99813.41;;;10.71;100.00
52949;BME280;38812;50.942;3.644;2022-11-15T14:57:29;99788.19;;;10.67;100.00
52949;BME280;38812;50.942;3.644;2022-11-15T14:59:54;99767.22;;;10.65;100.00
52949;BME280;38812;50.942;3.644;2022-11-15T15:02:25;99764.00;;;10.58;100.00
52949;BME280;38812;50.942;3.644;2022-11-15T15:04:52;99764.53;;;10.67;100.00
52949;BME280;38812;50.942;3.644;2022-11-15T15:07:17;99751.41;;;10.67;100.00
52949;BME280;38812;50.942;3.644;2022-11-15T15:09:43;99732.34;;;10.61;100.00
52949;BME280;38812;50.942;3.644;2022-11-15T15:12:20;99745.88;;;10.74;100.00
52949;BME280;38812;50.942;3.644;2022-11-15T15:14:47;99739.81;;;10.72;100.00
52949;BME280;38812;50.942;3.644;2022-11-15T15:17:13;99722.63;;;10.63;100.00
52949;BME280;38812;50.942;3.644;2022-11-15T15:19:39;99699.84;;;10.64;100.00
52949;BME280;38812;50.942;3.644;2022-11-15T15:22:05;99713.50;;;10.74;100.00
52949;BME280;38812;50.942;3.644;2022-11-15T15:24:30;99713.25;;;10.80;100.00
52949;BME280;38812;50.942;3.644;2022-11-15T15:26:56;99693.50;;;10.70;100.00
52949;BME280;38812;50.942;3.644;2022-11-15T15:29:21;99675.22;;;10.67;100.00
52949;BME280;38812;50.942;3.644;2022-11-15T15:31:46;99685.28;;;10.79;100.00
52949;BME280;38812;50.942;3.644;2022-11-15T15:34:12;99691.31;;;10.81;100.00
52949;BME280;38812;50.942;3.644;2022-11-15T15:36:37;99682.44;;;10.83;100.00
52949;BME280;38812;50.942;3.644;2022-11-15T15:39:03;99649.81;;;10.67;100.00
52949;BME280;38812;50.942;3.644;2022-11-15T15:41:28;99667.53;;;10.84;100.00
52949;BME280;38812;50.942;3.644;2022-11-15T15:43:53;99647.69;;;10.77;100.00
52949;BME280;38812;50.942;3.644;2022-11-15T15:46:19;99665.81;;;10.83;100.00
52949;BME280;38812;50.942;3.644;2022-11-15T15:48:46;99655.19;;;10.86;100.00
52949;BME280;38812;50.942;3.644;2022-11-15T15:51:11;99657.50;;;10.93;100.00
52949;BME280;38812;50.942;3.644;2022-11-15T15:53:37;99653.47;;;10.85;100.00
52949;BME280;38812;50.942;3.644;2022-11-15T15:56:03;99656.78;;;10.90;100.00
52949;BME280;38812;50.942;3.644;2022-11-15T15:58:29;99647.13;;;10.90;100.00
52949;BME280;38812;50.942;3.644;2022-11-15T16:00:54;99648.03;;;10.89;100.00
52949;BME280;38812;50.942;3.644;2022-11-15T16:03:20;99650.41;;;10.95;100.00
52949;BME280;38812;50.942;3.644;2022-11-15T16:05:45;99651.16;;;10.99;100.00
52949;BME280;38812;50.942;3.644;2022-11-15T16:08:22;99647.59;;;11.00;100.00
52949;BME280;38812;50.942;3.644;2022-11-15T16:10:48;99627.06;;;10.88;100.00
52949;BME280;38812;50.942;3.644;2022-11-15T16:13:13;99640.75;;;10.96;100.00
52949;BME280;38812;50.942;3.644;2022-11-15T16:15:39;99636.31;;;10.98;100.00
52949;BME280;38812;50.942;3.644;2022-11-15T16:18:05;99637.22;;;10.97;100.00
52949;BME280;38812;50.942;3.644;2022-11-15T16:20:41;99605.66;;;10.77;100.00
52949;BME280;38812;50.942;3.644;2022-11-15T16:23:10;99624.44;;;10.88;100.00
52949;BME280;38812;50.942;3.644;2022-11-15T16:25:44;99637.03;;;11.02;100.00
52949;BME280;38812;50.942;3.644;2022-11-15T16:28:30;99628.47;;;10.96;100.00
52949;BME280;38812;50.942;3.644;2022-11-15T16:31:05;99640.50;;;11.02;100.00
52949;BME280;38812;50.942;3.644;2022-11-15T16:33:31;99642.34;;;11.00;100.00
52949;BME280;38812;50.942;3.644;2022-11-15T16:35:56;99635.38;;;10.99;100.00
52949;BME280;38812;50.942;3.644;2022-11-15T16:38:21;99645.50;;;11.08;100.00
52949;BME280;38812;50.942;3.644;2022-11-15T16:40:47;99623.22;;;10.96;100.00
52949;BME280;38812;50.942;3.644;2022-11-15T16:43:12;99641.94;;;11.09;100.00
52949;BME280;38812;50.942;3.644;2022-11-15T16:45:38;99644.50;;;11.11;100.00
52949;BME280;38812;50.942;3.644;2022-11-15T16:48:03;99621.56;;;10.94;100.00
52949;BME280;38812;50.942;3.644;2022-11-15T16:50:31;99644.44;;;11.12;100.00
52949;BME280;38812;50.942;3.644;2022-11-15T16:52:59;99628.16;;;11.04;100.00
52949;BME280;38812;50.942;3.644;2022-11-15T16:55:27;99639.13;;;11.14;100.00
52949;BME280;38812;50.942;3.644;2022-11-15T16:57:53;99631.31;;;11.12;100.00
52949;BME280;38812;50.942;3.644;2022-11-15T17:00:20;99599.31;;;11.03;100.00
52949;BME280;38812;50.942;3.644;2022-11-15T17:02:47;99606.84;;;11.10;100.00
52949;BME280;38812;50.942;3.644;2022-11-15T17:05:13;99614.75;;;11.10;100.00
52949;BME280;38812;50.942;3.644;2022-11-15T17:07:39;99610.69;;;11.03;100.00
52949;BME280;38812;50.942;3.644;2022-11-15T17:10:06;99603.44;;;11.08;100.00
52949;BME280;38812;50.942;3.644;2022-11-15T17:12:33;99589.66;;;11.03;100.00
52949;BME280;38812;50.942;3.644;2022-11-15T17:14:58;99594.91;;;11.03;100.00
52949;BME280;38812;50.942;3.644;2022-11-15T17:17:24;99597.38;;;11.06;100.00
52949;BME280;38812;50.942;3.644;2022-11-15T17:19:51;99593.06;;;11.05;100.00
52949;BME280;38812;50.942;3.644;2022-11-15T17:22:17;99568.75;;;11.00;100.00
52949;BME280;38812;50.942;3.644;2022-11-15T17:24:42;99594.63;;;11.09;100.00
52949;BME280;38812;50.942;3.644;2022-11-15T17:27:08;99577.44;;;11.02;100.00
52949;BME280;38812;50.942;3.644;2022-11-15T17:29:33;99586.81;;;11.08;100.00
52949;BME280;38812;50.942;3.644;2022-11-15T17:31:58;99563.63;;;10.97;100.00
52949;BME280;38812;50.942;3.644;2022-11-15T17:34:24;99569.19;;;11.10;100.00
52949;BME280;38812;50.942;3.644;2022-11-15T17:36:49;99569.41;;;11.05;100.00
52949;BME280;38812;50.942;3.644;2022-11-15T17:39:14;99578.47;;;11.18;100.00
52949;BME280;38812;50.942;3.644;2022-11-15T17:41:40;99582.28;;;11.11;100.00
52949;BME280;38812;50.942;3.644;2022-11-15T17:44:05;99571.03;;;11.08;100.00
52949;BME280;38812;50.942;3.644;2022-11-15T17:46:31;99571.63;;;11.14;100.00
52949;BME280;38812;50.942;3.644;2022-11-15T17:48:58;99567.09;;;11.18;100.00
52949;BME280;38812;50.942;3.644;2022-11-15T17:51:23;99536.25;;;11.03;100.00
52949;BME280;38812;50.942;3.644;2022-11-15T17:53:49;99576.63;;;11.20;100.00
52949;BME280;38812;50.942;3.644;2022-11-15T17:56:17;99557.78;;;11.11;100.00
52949;BME280;38812;50.942;3.644;2022-11-15T17:59:01;99548.97;;;11.12;100.00
52949;BME280;38812;50.942;3.644;2022-11-15T18:01:31;99559.41;;;11.13;100.00
52949;BME280;38812;50.942;3.644;2022-11-15T18:03:58;99545.34;;;11.14;100.00
52949;BME280;38812;50.942;3.644;2022-11-15T18:06:25;99552.44;;;11.12;100.00
52949;BME280;38812;50.942;3.644;2022-11-15T18:08:52;99571.50;;;11.17;100.00
52949;BME280;38812;50.942;3.644;2022-11-15T18:11:25;99566.00;;;11.23;100.00
52949;BME280;38812;50.942;3.644;2022-11-15T18:13:53;99551.34;;;11.18;100.00
52949;BME280;38812;50.942;3.644;2022-11-15T18:16:21;99557.31;;;11.21;100.00
52949;BME280;38812;50.942;3.644;2022-11-15T18:18:48;99564.84;;;11.29;100.00
52949;BME280;38812;50.942;3.644;2022-11-15T18:21:21;99554.03;;;11.16;100.00
52949;BME280;38812;50.942;3.644;2022-11-15T18:23:48;99575.97;;;11.36;100.00
52949;BME280;38812;50.942;3.644;2022-11-15T18:26:16;99599.50;;;11.39;100.00
52949;BME280;38812;50.942;3.644;2022-11-15T18:28:44;99579.75;;;11.28;100.00
52949;BME280;38812;50.942;3.644;2022-11-15T18:31:15;99579.63;;;11.31;100.00
52949;BME280;38812;50.942;3.644;2022-11-15T18:33:41;99575.28;;;11.30;100.00
52949;BME280;38812;50.942;3.644;2022-11-15T18:36:10;99579.63;;;11.31;100.00
52949;BME280;38812;50.942;3.644;2022-11-15T18:38:35;99586.22;;;11.42;100.00
52949;BME280;38812;50.942;3.644;2022-11-15T18:41:12;99565.31;;;11.39;100.00
52949;BME280;38812;50.942;3.644;2022-11-15T18:43:38;99587.78;;;11.46;100.00